Overview Statistics Trail Chart Weather Telemetry Raw packets
 

This is the latest recevied weather packets stored in our database for station/object AI5BL. If no packets are shown the sender has not sent any weather packets the latest 10 day(s).

<< 14 15 16 17 18 19 20 >>
Time Temp. Humidity Pressure Rain* Wind** Luminosity Snow
1788552851 26.11° C 98% 1015.9 hPa 0 mm - 20 W/m² -
1788552546 26.11° C 98% 1015.9 hPa 1.78 mm - 22 W/m² -
1788552245 26.11° C 98% 1016.2 hPa 3.05 mm - 22 W/m² -
1788551940 26.11° C 98% 1016.1 hPa 6.1 mm - 20 W/m² -
1788551638 26.11° C 97% 1016.4 hPa 10.67 mm - 19 W/m² -
1788551333 26.67° C 97% 1016.3 hPa 10.67 mm - 19 W/m² -
1788551032 26.67° C 97% 1016.4 hPa 6.1 mm - 22 W/m² -
1788550727 27.22° C 97% 1016.7 hPa 0 mm - 27 W/m² -
1788550423 27.22° C 97% 1016.8 hPa 0 mm - 34 W/m² -
1788550118 27.22° C 96% 1016.6 hPa 0 mm - 46 W/m² -
1788549813 27.78° C 96% 1016.5 hPa 0 mm - 58 W/m² -
1788549510 27.78° C 97% 1016.2 hPa 0 mm - 91 W/m² -
1788549206 27.78° C 97% 1016.3 hPa 0 mm - 130 W/m² -
1788548902 27.78° C 97% 1016.4 hPa 0 mm - 211 W/m² -
1788548598 27.22° C 97% 1016.2 hPa 0 mm - 287 W/m² -
1788548294 26.67° C 97% 1016.3 hPa 1.78 mm - 730 W/m² -
1788547989 26.67° C 97% 1016.6 hPa 11.94 mm - 141 W/m² -
1788547689 26.67° C 96% 1016.6 hPa 13.21 mm - 91 W/m² -
1788547384 26.67° C 96% 1016.7 hPa 12.7 mm - 42 W/m² -
1788547080 27.22° C 95% 1016.9 hPa 16.76 mm - 40 W/m² -
1788546780 28.89° C 90% 1017 hPa 7.87 mm - 34 W/m² -
1788546475 30° C 79% 1016.9 hPa 0 mm - 42 W/m² -
1788546170 31.11° C 77% 1016.8 hPa 0 mm - 51 W/m² -
1788545866 31.11° C 78% 1016.8 hPa 0 mm - 72 W/m² -
1788545565 31.67° C 75% 1016.6 hPa 0 mm - 156 W/m² -

* Rain latest hour (hover to see other rain measurements)
** Current wind speed in m/s (hover to see current wind gust speed)